createdAt,value
2023-04-20T00:01:21.419Z,3.10
2023-04-20T00:06:25.366Z,2.80
2023-04-20T00:11:28.273Z,3.20
2023-04-20T00:16:30.707Z,3.03
2023-04-20T00:21:32.703Z,3.15
2023-04-20T00:26:34.952Z,3.40
2023-04-20T00:31:38.126Z,3.28
2023-04-20T00:36:41.772Z,3.50
2023-04-20T00:41:43.916Z,3.08
2023-04-20T00:46:46.292Z,3.20
2023-04-20T00:51:48.487Z,2.97
2023-04-20T00:56:51.651Z,3.25
2023-04-20T01:01:54.428Z,3.00
2023-04-20T01:06:57.163Z,3.15
2023-04-20T01:11:59.173Z,2.80
2023-04-20T01:17:01.353Z,2.90
2023-04-20T01:22:03.424Z,2.90
2023-04-20T01:27:05.643Z,3.05
2023-04-20T01:32:10.842Z,3.10
2023-04-20T01:37:12.876Z,3.20
2023-04-20T01:42:14.956Z,3.60
2023-04-20T01:47:19.085Z,3.10
2023-04-20T01:52:21.154Z,3.63
2023-04-20T01:57:23.959Z,3.28
2023-04-20T02:02:26.966Z,3.17
2023-04-20T02:07:29.464Z,3.28
2023-04-20T02:12:31.587Z,3.30
2023-04-20T02:17:33.940Z,3.50
2023-04-20T02:22:36.801Z,3.63
2023-04-20T02:27:38.961Z,3.55
2023-04-20T02:32:41.154Z,3.30
2023-04-20T02:37:44.571Z,3.40
2023-04-20T02:42:47.155Z,3.40
2023-04-20T02:47:49.356Z,3.25
2023-04-20T02:52:51.477Z,3.22
2023-04-20T02:57:53.465Z,3.30
2023-04-20T03:02:59.465Z,3.45
2023-04-20T03:08:05.193Z,2.85
2023-04-20T03:13:07.609Z,3.00
2023-04-20T03:18:31.081Z,3.90
2023-04-20T03:23:33.368Z,3.63
2023-04-20T03:28:37.331Z,3.70
2023-04-20T03:33:39.545Z,3.35
2023-04-20T03:38:41.813Z,5.47
2023-04-20T03:43:43.872Z,4.07
2023-04-20T03:48:45.883Z,3.28
2023-04-20T03:53:48.176Z,3.67
2023-04-20T03:58:50.284Z,3.40
2023-04-20T04:04:00.086Z,3.70
2023-04-20T04:09:02.537Z,3.78
2023-04-20T04:14:05.487Z,3.58
2023-04-20T04:19:09.301Z,3.88
2023-04-20T04:24:12.721Z,3.50
2023-04-20T04:29:27.839Z,3.70
2023-04-20T04:34:34.760Z,3.60
2023-04-20T04:39:38.579Z,3.65
2023-04-20T04:44:56.295Z,3.60
2023-04-20T04:50:05.989Z,3.30
2023-04-20T04:55:09.633Z,3.72
2023-04-20T05:00:12.733Z,4.10
2023-04-20T05:05:15.533Z,3.80
2023-04-20T05:10:17.917Z,3.17
2023-04-20T05:15:19.986Z,3.63
2023-04-20T05:20:22.194Z,3.25
2023-04-20T05:25:24.475Z,3.90
2023-04-20T05:30:26.696Z,4.00
2023-04-20T05:35:28.680Z,3.22
2023-04-20T05:40:30.828Z,3.40
2023-04-20T05:45:34.242Z,3.42
2023-04-20T05:50:36.651Z,4.40
2023-04-20T05:55:38.741Z,3.55
2023-04-20T06:00:40.943Z,3.42
2023-04-20T06:05:43.084Z,3.80
2023-04-20T06:10:45.267Z,3.65
2023-04-20T06:15:47.305Z,4.10
2023-04-20T06:20:49.438Z,3.97
2023-04-20T06:25:51.586Z,3.95
2023-04-20T06:30:53.649Z,4.18
2023-04-20T06:35:56.599Z,3.50
2023-04-20T06:41:01.939Z,3.40
2023-04-20T06:46:04.046Z,3.40
2023-04-20T06:51:06.197Z,3.65
2023-04-20T06:56:08.374Z,3.50
2023-04-20T07:01:10.763Z,3.88
2023-04-20T07:06:12.894Z,4.22
2023-04-20T07:11:14.954Z,2.92
2023-04-20T07:16:17.164Z,3.20
2023-04-20T07:21:19.220Z,3.55
2023-04-20T07:26:21.227Z,4.68
2023-04-20T07:31:23.391Z,3.70
2023-04-20T07:36:26.273Z,3.42
2023-04-20T07:41:28.627Z,4.00
2023-04-20T07:46:30.976Z,3.75
2023-04-20T07:51:34.344Z,4.32
2023-04-20T07:56:45.565Z,3.60
2023-04-20T08:01:47.971Z,4.38
2023-04-20T08:06:50.311Z,4.07
2023-04-20T08:11:52.440Z,4.05
2023-04-20T08:16:54.631Z,3.97
2023-04-20T08:21:56.755Z,4.35
2023-04-20T08:26:59.334Z,4.40
2023-04-20T08:32:03.562Z,4.03
2023-04-20T08:37:06.021Z,4.28
2023-04-20T08:42:08.083Z,3.80
2023-04-20T08:47:11.885Z,3.67
2023-04-20T08:52:13.983Z,3.65
2023-04-20T08:57:16.102Z,4.03
2023-04-20T09:02:18.146Z,4.00
2023-04-20T09:07:21.305Z,3.92
2023-04-20T09:12:24.696Z,4.63
2023-04-20T09:17:34.598Z,3.95
2023-04-20T09:22:37.681Z,3.80
2023-04-20T09:27:40.109Z,5.22
2023-04-20T09:32:42.185Z,3.83
2023-04-20T09:37:48.078Z,4.22
2023-04-20T09:42:53.479Z,4.07
2023-04-20T09:47:56.093Z,3.33
2023-04-20T09:52:58.410Z,4.00
2023-04-20T09:58:04.594Z,3.78
2023-04-20T10:03:09.072Z,4.10
2023-04-20T10:08:11.483Z,3.95
2023-04-20T10:13:33.847Z,3.43
2023-04-20T10:18:35.872Z,3.65
2023-04-20T10:23:52.181Z,4.53
2023-04-20T10:28:54.321Z,4.45
2023-04-20T10:33:57.509Z,5.15
2023-04-20T10:39:02.609Z,5.00
2023-04-20T10:44:08.868Z,3.08
2023-04-20T10:49:10.953Z,3.35
2023-04-20T10:54:12.974Z,3.20
2023-04-20T10:59:17.066Z,2.90
2023-04-20T11:04:30.678Z,3.60
2023-04-20T11:09:34.437Z,3.60
2023-04-20T11:14:38.657Z,3.70
2023-04-20T11:19:41.102Z,3.65
2023-04-20T11:24:44.145Z,3.75
2023-04-20T11:29:56.360Z,3.75
2023-04-20T11:35:10.952Z,3.50
2023-04-20T11:40:14.938Z,3.20
2023-04-20T11:45:17.860Z,3.30
2023-04-20T11:50:19.909Z,3.45
2023-04-20T11:55:22.003Z,2.95
2023-04-20T12:00:24.116Z,3.40
2023-04-20T12:05:27.954Z,3.35
2023-04-20T12:10:30.223Z,3.15
2023-04-20T12:15:32.345Z,3.70
2023-04-20T12:20:34.561Z,3.60
2023-04-20T12:25:36.713Z,3.67
2023-04-20T12:30:38.764Z,3.55
2023-04-20T12:35:40.964Z,3.85
2023-04-20T12:40:43.024Z,4.20
2023-04-20T12:45:45.802Z,4.65
2023-04-20T12:50:47.999Z,4.57
2023-04-20T12:55:57.573Z,4.57
2023-04-20T13:01:03.524Z,4.35
2023-04-20T13:06:06.213Z,4.22
2023-04-20T13:11:11.975Z,4.82
2023-04-20T13:16:14.402Z,4.47
2023-04-20T13:21:16.668Z,5.43
2023-04-20T13:26:18.761Z,4.70
2023-04-20T13:31:20.862Z,4.18
2023-04-20T13:36:24.307Z,4.82
2023-04-20T13:41:26.794Z,4.50
2023-04-20T13:46:29.802Z,4.65
2023-04-20T13:51:32.540Z,5.07
2023-04-20T13:56:34.793Z,5.15
2023-04-20T14:01:37.068Z,4.82
2023-04-20T14:06:39.174Z,5.18
2023-04-20T14:11:41.264Z,4.82
2023-04-20T14:16:45.357Z,5.90
2023-04-20T14:21:47.647Z,5.15
2023-04-20T14:26:51.554Z,6.80
2023-04-20T14:31:53.660Z,5.07
2023-04-20T14:36:55.738Z,5.32
2023-04-20T14:41:57.849Z,5.07
2023-04-20T14:47:00.031Z,6.60
2023-04-20T14:52:02.123Z,6.13
2023-04-20T14:57:04.222Z,6.20
2023-04-20T15:02:06.445Z,5.75
2023-04-20T15:07:08.517Z,5.68
2023-04-20T15:12:10.821Z,6.03
2023-04-20T15:17:13.867Z,5.65
2023-04-20T15:22:16.072Z,5.38
2023-04-20T15:27:18.191Z,5.70
2023-04-20T15:32:20.414Z,5.68
2023-04-20T15:37:22.725Z,5.70
2023-04-20T15:42:24.816Z,5.05
2023-04-20T15:47:26.847Z,5.43
2023-04-20T15:52:32.403Z,6.15
2023-04-20T15:57:34.429Z,6.68
2023-04-20T16:02:38.407Z,5.78
2023-04-20T16:07:40.625Z,6.20
2023-04-20T16:12:42.715Z,5.53
2023-04-20T16:17:45.339Z,7.50
2023-04-20T16:22:47.417Z,6.68
2023-04-20T16:27:51.409Z,7.43
2023-04-20T16:32:53.566Z,7.10
2023-04-20T16:37:56.344Z,6.50
2023-04-20T16:42:58.415Z,6.10
2023-04-20T16:48:00.754Z,6.35
2023-04-20T16:53:03.649Z,6.78
2023-04-20T16:58:05.680Z,6.60
2023-04-20T17:03:10.535Z,7.38
2023-04-20T17:08:12.893Z,6.40
2023-04-20T17:13:15.393Z,7.25
2023-04-20T17:18:17.466Z,6.93
2023-04-20T17:23:19.688Z,7.07
2023-04-20T17:28:22.516Z,6.47
2023-04-20T17:33:24.600Z,5.70
2023-04-20T17:38:26.688Z,6.18
2023-04-20T17:43:28.937Z,6.82
2023-04-20T17:48:30.899Z,7.15
2023-04-20T17:53:33.089Z,7.43
2023-04-20T17:58:35.306Z,7.30
2023-04-20T18:03:37.658Z,7.00
2023-04-20T18:08:39.900Z,7.63
2023-04-20T18:13:42.275Z,7.63
2023-04-20T18:18:44.533Z,7.35
2023-04-20T18:23:46.709Z,8.18
2023-04-20T18:28:49.133Z,8.00
2023-04-20T18:33:51.186Z,8.02
2023-04-20T18:38:54.080Z,7.80
2023-04-20T18:43:56.547Z,8.57
2023-04-20T18:48:58.660Z,11.35
2023-04-20T18:54:00.779Z,8.45
2023-04-20T18:59:03.721Z,7.57
2023-04-20T19:04:09.022Z,7.45
2023-04-20T19:09:11.356Z,7.53
2023-04-20T19:14:13.460Z,7.55
2023-04-20T19:19:15.898Z,7.30
2023-04-20T19:24:18.346Z,6.80
2023-04-20T19:29:20.539Z,7.80
2023-04-20T19:34:22.782Z,8.23
2023-04-20T19:39:24.869Z,7.70
2023-04-20T19:44:28.032Z,8.27
2023-04-20T19:49:30.204Z,8.05
2023-04-20T19:54:32.393Z,8.13
2023-04-20T19:59:37.422Z,8.90
2023-04-20T20:04:39.692Z,9.18
2023-04-20T20:10:00.252Z,8.68
2023-04-20T20:15:03.936Z,7.72
2023-04-20T20:20:12.152Z,8.60
2023-04-20T20:25:15.393Z,8.88
2023-04-20T20:30:17.643Z,8.60
2023-04-20T20:35:19.704Z,7.90
2023-04-20T20:40:23.519Z,9.18
2023-04-20T20:45:25.585Z,8.15
2023-04-20T20:50:27.877Z,9.15
2023-04-20T20:55:30.302Z,7.95
2023-04-20T21:00:33.422Z,7.20
2023-04-20T21:05:35.912Z,7.85
2023-04-20T21:10:38.010Z,7.13
2023-04-20T21:15:40.549Z,7.22
2023-04-20T21:20:42.635Z,7.22
2023-04-20T21:25:44.649Z,6.97
2023-04-20T21:30:46.627Z,7.32
2023-04-20T21:35:48.677Z,7.45
2023-04-20T21:40:50.723Z,8.50
2023-04-20T21:45:52.807Z,8.20
2023-04-20T21:50:54.943Z,7.18
2023-04-20T21:55:56.966Z,8.00
2023-04-20T22:00:59.228Z,8.52
2023-04-20T22:06:01.316Z,8.45
2023-04-20T22:11:03.649Z,8.65
2023-04-20T22:16:06.572Z,9.57
2023-04-20T22:21:08.636Z,9.68
2023-04-20T22:26:10.754Z,9.27
2023-04-20T22:31:12.774Z,10.35
2023-04-20T22:36:14.824Z,9.20
2023-04-20T22:41:17.580Z,11.77
2023-04-20T22:46:19.886Z,12.70
2023-04-20T22:51:22.164Z,13.38
2023-04-20T22:56:24.582Z,14.68
2023-04-20T23:01:26.759Z,15.77
2023-04-20T23:06:29.631Z,16.15
2023-04-20T23:11:38.455Z,16.27
2023-04-20T23:16:41.042Z,17.52
2023-04-20T23:21:43.392Z,16.40
2023-04-20T23:26:45.643Z,19.27
2023-04-20T23:31:47.639Z,19.50
2023-04-20T23:36:50.501Z,19.83
2023-04-20T23:41:52.986Z,20.45
2023-04-20T23:46:55.423Z,20.63
2023-04-20T23:51:57.551Z,20.60
2023-04-20T23:56:59.686Z,22.35
